createdAt,value
2018-11-12T00:12:12.394Z,18.9
2018-11-12T00:17:20.364Z,18.8
2018-11-12T00:22:28.490Z,18.8
2018-11-12T00:32:44.507Z,18.6
2018-11-12T00:37:52.546Z,18.5
2018-11-12T00:43:00.591Z,18.5
2018-11-12T00:48:08.683Z,18.4
2018-11-12T00:53:16.727Z,18.3
2018-11-12T00:58:24.772Z,18.2
2018-11-12T01:03:32.953Z,18.2
2018-11-12T01:08:41.061Z,18.1
2018-11-12T01:13:49.167Z,18
2018-11-12T01:18:57.369Z,17.9
2018-11-12T01:24:05.372Z,17.8
2018-11-12T01:34:21.726Z,17.6
2018-11-12T01:39:29.836Z,17.5
2018-11-12T01:49:46.175Z,17.4
2018-11-12T01:54:54.324Z,17.3
2018-11-12T02:00:02.485Z,17.3
2018-11-12T02:05:10.642Z,17.3
2018-11-12T02:10:18.713Z,17.3
2018-11-12T02:15:26.979Z,17.3
2018-11-12T02:20:35.257Z,17.2
2018-11-12T02:25:43.375Z,17.1
2018-11-12T02:35:59.737Z,17.1
2018-11-12T02:41:07.939Z,17.1
2018-11-12T02:46:16.112Z,17.2
2018-11-12T02:51:24.295Z,17.2
2018-11-12T02:56:32.455Z,17.3
2018-11-12T03:01:40.526Z,17.4
2018-11-12T03:06:48.757Z,17.5
2018-11-12T03:11:56.944Z,17.6
2018-11-12T03:17:05.096Z,17.8
2018-11-12T03:22:13.233Z,17.7
2018-11-12T03:37:37.546Z,17.9
2018-11-12T03:42:45.685Z,17.9
2018-11-12T03:47:53.778Z,18
2018-11-12T03:53:01.932Z,18
2018-11-12T03:58:09.975Z,18.1
2018-11-12T04:03:18.112Z,18.3
2018-11-12T04:08:26.096Z,18.4
2018-11-12T04:13:34.261Z,18.5
2018-11-12T04:18:42.372Z,18.6
2018-11-12T04:23:50.316Z,18.7
2018-11-12T04:28:58.487Z,18.9
2018-11-12T04:34:06.489Z,18.9
2018-11-12T04:39:14.661Z,18.9
2018-11-12T04:44:32.060Z,19.1
2018-11-12T04:49:30.754Z,19
2018-11-12T04:54:38.811Z,19
2018-11-12T04:59:46.891Z,19
2018-11-12T05:04:54.963Z,19.1
2018-11-12T05:20:19.202Z,19
2018-11-12T05:25:27.243Z,19
2018-11-12T05:30:35.375Z,18.9
2018-11-12T05:35:43.508Z,18.8
2018-11-12T05:40:51.562Z,18.8
2018-11-12T05:45:59.639Z,18.8
2018-11-12T05:51:07.672Z,18.8
2018-11-12T05:56:15.831Z,18.8
2018-11-12T06:01:23.920Z,18.8
2018-11-12T06:06:32.062Z,18.7
2018-11-12T06:11:40.140Z,18.7
2018-11-12T06:16:48.253Z,18.7
2018-11-12T06:21:56.374Z,18.5
2018-11-12T06:27:04.481Z,18.5
2018-11-12T06:32:13.111Z,18.3
2018-11-12T06:37:20.749Z,18.2
2018-11-12T06:42:28.875Z,18.2
2018-11-12T06:47:37.036Z,18.1
2018-11-12T06:57:53.601Z,18.1
2018-11-12T07:03:01.521Z,18.1
2018-11-12T07:08:09.603Z,18.1
2018-11-12T07:13:17.887Z,18.1
2018-11-12T07:18:26.042Z,18.2
2018-11-12T07:23:34.183Z,18.1
2018-11-12T07:33:50.359Z,18.1
2018-11-12T07:44:06.522Z,18.2
2018-11-12T07:49:14.727Z,18.2
2018-11-12T07:54:22.836Z,18.3
2018-11-12T07:59:30.953Z,18.4
2018-11-12T08:04:39.064Z,18.4
2018-11-12T08:09:47.166Z,18.4
2018-11-12T08:14:55.194Z,18.5
2018-11-12T08:20:03.390Z,18.6
2018-11-12T08:25:11.453Z,18.7
2018-11-12T08:30:19.616Z,18.7
2018-11-12T08:50:51.817Z,19
2018-11-12T08:55:59.953Z,19.2
2018-11-12T09:01:08.011Z,19.2
2018-11-12T09:06:15.985Z,19.4
2018-11-12T09:11:24.124Z,19.4
2018-11-12T09:16:32.219Z,19.4
2018-11-12T09:21:40.158Z,19.6
2018-11-12T09:26:48.262Z,19.7
2018-11-12T09:31:56.312Z,19.8
2018-11-12T09:37:04.339Z,19.9
2018-11-12T09:42:12.370Z,20
2018-11-12T09:47:20.352Z,20.2
2018-11-12T09:57:36.396Z,20.5
2018-11-12T10:02:44.404Z,20.7
2018-11-12T10:07:52.309Z,20.7
2018-11-12T10:13:00.388Z,20.8
2018-11-12T10:23:16.257Z,21.1
2018-11-12T10:28:24.210Z,21.1
2018-11-12T10:33:32.172Z,21.2
2018-11-12T10:38:40.226Z,21.2
2018-11-12T10:43:48.129Z,21.5
2018-11-12T10:48:55.986Z,21.5
2018-11-12T10:54:04.010Z,21.6
2018-11-12T10:59:11.908Z,21.8
2018-11-12T11:04:19.812Z,21.9
2018-11-12T11:09:27.728Z,22.1
2018-11-12T11:14:35.556Z,22.2
2018-11-12T11:19:43.508Z,22.3
2018-11-12T11:24:51.452Z,22.4
2018-11-12T11:29:59.282Z,22.5
2018-11-12T11:35:07.162Z,22.5
2018-11-12T11:40:15.020Z,22.6
2018-11-12T11:45:22.868Z,22.6
2018-11-12T11:50:30.649Z,22.7
2018-11-12T11:55:38.717Z,22.8
2018-11-12T12:05:54.553Z,23
2018-11-12T12:11:02.095Z,23
2018-11-12T12:16:09.875Z,23
2018-11-12T12:21:17.693Z,23.1
2018-11-12T12:26:25.501Z,23.2
2018-11-12T12:31:33.320Z,23.3
2018-11-12T12:36:41.000Z,23.5
2018-11-12T12:41:48.869Z,23.6
2018-11-12T12:52:04.341Z,23.6
2018-11-12T12:57:12.174Z,23.5
2018-11-12T13:02:20.020Z,23.4
2018-11-12T13:07:27.774Z,23.4
2018-11-12T13:12:35.648Z,23.3
2018-11-12T13:22:51.117Z,23.3
2018-11-12T13:27:58.898Z,23.1
2018-11-12T13:33:06.621Z,23.1
2018-11-12T13:48:30.049Z,22.7
2018-11-12T13:53:37.892Z,22.6
2018-11-12T14:03:53.643Z,22.3
2018-11-12T14:09:01.479Z,22.1
2018-11-12T14:14:09.343Z,22
2018-11-12T14:19:17.195Z,21.9
2018-11-12T14:24:25.072Z,21.9
2018-11-12T14:29:32.951Z,21.8
2018-11-12T14:34:40.762Z,21.7
2018-11-12T14:39:48.673Z,21.7
2018-11-12T14:44:56.506Z,21.7
2018-11-12T14:55:12.336Z,21.7
2018-11-12T15:05:28.165Z,21.4
2018-11-12T15:10:36.340Z,21.4
2018-11-12T15:15:43.943Z,21.4
2018-11-12T15:20:51.922Z,21.4
2018-11-12T15:31:07.688Z,21.3
2018-11-12T15:36:15.523Z,21.3
2018-11-12T15:41:23.494Z,21.3
2018-11-12T15:46:31.334Z,21.3
2018-11-12T15:51:39.327Z,21.3
2018-11-12T15:56:47.216Z,21.1
2018-11-12T16:01:55.067Z,21.1
2018-11-12T16:07:02.983Z,21.1
2018-11-12T16:12:10.917Z,21.1
2018-11-12T16:17:18.925Z,21.2
2018-11-12T16:22:26.831Z,21.1
2018-11-12T16:27:34.784Z,21.1
2018-11-12T16:32:42.729Z,21
2018-11-12T16:37:50.637Z,21
2018-11-12T16:42:58.552Z,21
2018-11-12T16:48:06.388Z,20.9
2018-11-12T16:53:14.384Z,20.9
2018-11-12T16:58:22.251Z,20.8
2018-11-12T17:03:30.169Z,20.8
2018-11-12T17:13:46.118Z,20.5
2018-11-12T17:18:54.035Z,20.5
2018-11-12T17:24:02.000Z,20.4
2018-11-12T17:29:09.930Z,20.2
2018-11-12T17:34:17.805Z,20.1
2018-11-12T17:39:25.876Z,20.1
2018-11-12T17:44:33.845Z,19.9
2018-11-12T17:54:49.951Z,19.9
2018-11-12T17:59:57.848Z,19.9
2018-11-12T18:05:05.831Z,19.9
2018-11-12T18:10:13.854Z,19.8
2018-11-12T18:15:24.078Z,19.7
2018-11-12T18:20:29.831Z,19.8
2018-11-12T18:25:37.827Z,19.7
2018-11-12T18:30:45.778Z,19.6
2018-11-12T18:35:53.858Z,19.7
2018-11-12T18:46:09.824Z,19.5
2018-11-12T18:56:25.770Z,19.4
2018-11-12T19:01:33.755Z,19.4
2018-11-12T19:06:41.731Z,19.4
2018-11-12T19:11:49.739Z,19.4
2018-11-12T19:16:57.712Z,19.3
2018-11-12T19:22:05.741Z,19.2
2018-11-12T19:27:13.798Z,19.3
2018-11-12T19:32:21.716Z,19.3
2018-11-12T19:37:29.836Z,19.2
2018-11-12T19:42:37.798Z,19.2
2018-11-12T19:47:45.924Z,19.2
2018-11-12T19:52:53.948Z,19.2
2018-11-12T19:58:02.017Z,19.2
2018-11-12T20:08:18.093Z,19.2
2018-11-12T20:13:26.175Z,19.2
2018-11-12T20:18:34.189Z,19.1
2018-11-12T20:23:42.319Z,19.3
2018-11-12T20:28:50.256Z,19.2
2018-11-12T20:39:06.292Z,19.3
2018-11-12T20:49:22.346Z,19.4
2018-11-12T20:54:30.334Z,19.4
2018-11-12T20:59:38.364Z,19.4
2018-11-12T21:04:46.389Z,19.3
2018-11-12T21:09:54.410Z,19.4
2018-11-12T21:15:02.461Z,19.3
2018-11-12T21:20:10.491Z,19.3
2018-11-12T21:25:18.525Z,19.4
2018-11-12T21:30:26.486Z,19.4
2018-11-12T21:35:34.636Z,19.3
2018-11-12T21:40:42.643Z,19.3
2018-11-12T21:50:58.658Z,19.3
2018-11-12T21:56:06.676Z,19.3
2018-11-12T22:01:14.780Z,19.2
2018-11-12T22:06:22.807Z,19.2
2018-11-12T22:11:30.847Z,19.1
2018-11-12T22:21:46.940Z,19.1
2018-11-12T22:26:55.051Z,19
2018-11-12T22:32:03.027Z,19
2018-11-12T22:37:11.063Z,19.1
2018-11-12T22:42:19.089Z,19
2018-11-12T22:47:27.134Z,19
2018-11-12T22:52:35.107Z,19
2018-11-12T22:57:43.152Z,19
2018-11-12T23:02:51.195Z,18.9
2018-11-12T23:07:59.342Z,18.9
2018-11-12T23:13:07.345Z,18.9
2018-11-12T23:18:15.356Z,18.8
2018-11-12T23:23:23.452Z,18.7
2018-11-12T23:28:31.589Z,18.8
2018-11-12T23:33:39.578Z,18.6
2018-11-12T23:38:47.644Z,18.6
2018-11-12T23:43:55.701Z,18.5
2018-11-12T23:49:03.720Z,18.6
2018-11-12T23:54:11.776Z,18.4
